Time;durP1;ratioP1;P1;durP2;ratioP2;P2;SDS_P1;SDS_P2;PMS_P1;PMS_P2;Temp;Humidity;BMP_temperature;BMP_pressure;BME280_temperature;BME280_humidity;BME280_pressure;Samples;Min_cycle;Max_cycle;Signal;HPM_P1;HPM_P2
2024/02/26 00:01:45;;;;;;;18.15;12.88;;;9.80;99.90;;;;;;5046129;28;20217;-80
2024/02/26 00:04:15;;;;;;;18.40;12.40;;;9.80;99.90;;;;;;5043929;28;20230;-81
2024/02/26 00:06:50;;;;;;;15.52;11.80;;;9.80;99.90;;;;;;5041532;28;20308;-81
2024/02/26 00:09:17;;;;;;;15.00;12.30;;;9.70;99.90;;;;;;5041393;28;20235;-81
2024/02/26 00:11:44;;;;;;;15.25;11.30;;;9.70;99.90;;;;;;5040983;28;20686;-80
2024/02/26 00:14:19;;;;;;;16.17;11.75;;;9.70;99.90;;;;;;5055535;28;20228;-80
2024/02/26 00:16:50;;;;;;;11.95;10.70;;;9.70;99.90;;;;;;5043541;28;20617;-80
2024/02/26 00:19:20;;;;;;;12.80;10.25;;;9.60;99.90;;;;;;5032414;28;20237;-81
2024/02/26 00:22:17;;;;;;;16.85;11.05;;;9.70;99.90;;;;;;5031235;28;20552;-81
2024/02/26 00:30:35;;;;;;;10.88;9.77;;;9.50;99.90;;;;;;5013469;28;20616;-81
2024/02/26 00:33:06;;;;;;;17.83;11.48;;;9.50;99.90;;;;;;5057034;28;20243;-80
2024/02/26 00:36:12;;;;;;;12.48;11.18;;;9.50;99.90;;;;;;5043270;28;20299;-80
2024/02/26 00:39:10;;;;;;;13.27;10.95;;;9.50;99.90;;;;;;5013377;28;20768;-80
2024/02/26 00:47:49;;;;;;;14.23;10.98;;;9.40;99.90;;;;;;5031492;28;20652;-80
2024/02/26 00:50:18;;;;;;;14.45;12.13;;;9.30;99.90;;;;;;5054164;28;20235;-80
2024/02/26 00:52:45;;;;;;;14.50;11.85;;;9.30;99.90;;;;;;5053177;28;20228;-80
2024/02/26 00:55:13;;;;;;;15.13;12.13;;;9.30;99.90;;;;;;5052089;28;20220;-80
2024/02/26 00:57:40;;;;;;;13.05;11.77;;;9.30;99.90;;;;;;5051021;28;20217;-80
2024/02/26 01:00:12;;;;;;;13.77;11.70;;;9.30;99.90;;;;;;5053116;28;20217;-79
2024/02/26 01:02:41;;;;;;;13.25;11.95;;;9.30;99.90;;;;;;5059347;28;20228;-80
2024/02/26 01:05:09;;;;;;;12.43;11.13;;;9.20;99.90;;;;;;5053160;28;20236;-79
2024/02/26 01:07:37;;;;;;;13.77;10.60;;;9.20;99.90;;;;;;5041925;28;20221;-80
2024/02/26 01:10:05;;;;;;;13.90;11.63;;;9.20;99.90;;;;;;5034670;28;20726;-79
2024/02/26 01:12:34;;;;;;;13.52;12.13;;;9.20;99.90;;;;;;5034000;28;20239;-79
2024/02/26 01:15:02;;;;;;;12.75;11.00;;;9.20;99.90;;;;;;5051303;28;20225;-80
2024/02/26 01:17:29;;;;;;;12.45;10.82;;;9.20;99.90;;;;;;5053435;28;20251;-80
2024/02/26 01:19:56;;;;;;;12.52;11.23;;;9.10;99.90;;;;;;5036918;28;20686;-81
2024/02/26 01:22:23;;;;;;;12.95;11.57;;;9.10;99.90;;;;;;5037545;28;20224;-80
2024/02/26 01:24:52;;;;;;;12.25;10.95;;;9.10;99.90;;;;;;5054769;28;20698;-81
2024/02/26 01:27:26;;;;;;;12.40;10.77;;;9.10;99.90;;;;;;5054189;28;20274;-81
2024/02/26 01:29:53;;;;;;;12.10;10.90;;;9.10;99.90;;;;;;5054581;28;20315;-79
2024/02/26 01:32:20;;;;;;;12.98;10.55;;;9.10;99.90;;;;;;5047426;28;20270;-81
2024/02/26 01:34:47;;;;;;;12.38;10.85;;;9.10;99.90;;;;;;5054001;28;20232;-78
2024/02/26 01:37:15;;;;;;;11.65;10.35;;;9.00;99.90;;;;;;5053143;28;20250;-81
2024/02/26 01:39:42;;;;;;;11.43;10.05;;;9.00;99.90;;;;;;5054292;28;20220;-80
2024/02/26 01:42:10;;;;;;;11.98;10.70;;;9.00;99.90;;;;;;5035823;28;20244;-80
2024/02/26 01:44:37;;;;;;;11.90;10.50;;;9.00;99.90;;;;;;5033493;28;20221;-78
2024/02/26 01:47:06;;;;;;;12.60;10.07;;;9.00;99.90;;;;;;5052398;28;20681;-81
2024/02/26 01:49:33;;;;;;;13.55;11.02;;;9.00;99.90;;;;;;5052386;28;20217;-79
2024/02/26 01:52:00;;;;;;;14.73;10.10;;;9.00;99.90;;;;;;5051765;28;20221;-81
2024/02/26 01:54:27;;;;;;;12.82;11.07;;;9.00;99.90;;;;;;5052468;28;20212;-81
2024/02/26 01:56:55;;;;;;;14.48;11.95;;;8.90;99.90;;;;;;5052076;28;20227;-82
2024/02/26 01:59:24;;;;;;;13.85;11.77;;;8.90;99.90;;;;;;5051924;28;20243;-81
2024/02/26 02:01:56;;;;;;;12.80;11.40;;;8.90;99.90;;;;;;5057042;28;20715;-79
2024/02/26 02:04:24;;;;;;;13.57;11.45;;;8.90;99.90;;;;;;5033878;28;20222;-79
2024/02/26 02:07:02;;;;;;;13.82;11.05;;;8.90;99.90;;;;;;5033979;28;20260;-80
2024/02/26 02:09:29;;;;;;;13.20;9.95;;;8.80;99.90;;;;;;5043537;28;20637;-81
2024/02/26 02:11:57;;;;;;;13.93;10.25;;;8.80;99.90;;;;;;5048690;28;20664;-80
2024/02/26 02:14:26;;;;;;;11.07;9.98;;;8.80;99.90;;;;;;5057527;28;20236;-80
2024/02/26 02:16:53;;;;;;;12.43;10.60;;;8.80;99.90;;;;;;5056938;28;20222;-81
2024/02/26 02:19:20;;;;;;;10.48;9.48;;;8.70;99.90;;;;;;5043573;28;20289;-81
2024/02/26 02:21:49;;;;;;;10.80;9.63;;;8.70;99.90;;;;;;5053450;28;20217;-81
2024/02/26 02:24:16;;;;;;;9.50;8.60;;;8.70;99.90;;;;;;5051616;28;20217;-81
2024/02/26 02:26:44;;;;;;;12.02;9.43;;;8.70;99.90;;;;;;5044972;28;20224;-81
2024/02/26 02:29:12;;;;;;;8.88;7.95;;;8.70;99.90;;;;;;5052948;28;20254;-81
2024/02/26 02:31:39;;;;;;;10.30;7.93;;;8.60;99.90;;;;;;5051010;28;20252;-81
2024/02/26 02:34:07;;;;;;;8.45;7.72;;;8.60;99.90;;;;;;5045940;28;20242;-82
2024/02/26 02:36:35;;;;;;;8.13;7.00;;;8.60;99.90;;;;;;5050850;28;20557;-81
2024/02/26 02:39:03;;;;;;;6.88;6.20;;;8.60;99.90;;;;;;5052484;28;20236;-80
2024/02/26 02:41:31;;;;;;;7.22;6.63;;;8.60;99.90;;;;;;5051471;28;20221;-80
2024/02/26 02:43:58;;;;;;;7.20;6.55;;;8.60;99.90;;;;;;5051316;28;20246;-82
2024/02/26 02:46:25;;;;;;;7.65;6.80;;;8.60;99.90;;;;;;5052439;28;20217;-82
2024/02/26 02:48:52;;;;;;;8.30;7.07;;;8.60;99.90;;;;;;5053150;28;20225;-81
2024/02/26 02:51:20;;;;;;;6.22;5.63;;;8.60;99.90;;;;;;5052090;28;20221;-82
2024/02/26 02:53:47;;;;;;;8.15;6.40;;;8.60;99.90;;;;;;5052902;28;20621;-80
2024/02/26 02:56:15;;;;;;;7.70;6.10;;;8.60;99.90;;;;;;5052163;28;20221;-80
2024/02/26 02:58:42;;;;;;;6.85;6.15;;;8.60;99.90;;;;;;5052289;28;20229;-81
2024/02/26 03:01:10;;;;;;;7.35;6.68;;;8.50;99.90;;;;;;5055315;28;20336;-81
2024/02/26 03:03:37;;;;;;;7.13;6.00;;;8.60;99.90;;;;;;5072555;28;20258;-81
2024/02/26 03:06:05;;;;;;;8.40;6.43;;;8.50;99.90;;;;;;5072884;28;20227;-80
2024/02/26 03:08:32;;;;;;;8.30;6.80;;;8.50;99.90;;;;;;5072362;28;20223;-81
2024/02/26 03:11:00;;;;;;;6.90;6.25;;;8.40;99.90;;;;;;5072013;28;20312;-80
2024/02/26 03:13:28;;;;;;;7.30;6.70;;;8.40;99.90;;;;;;5056262;28;20224;-80
2024/02/26 03:15:55;;;;;;;12.82;6.80;;;8.40;99.90;;;;;;5071132;28;20223;-80
2024/02/26 03:18:22;;;;;;;6.57;5.90;;;8.40;99.90;;;;;;5046519;28;20315;-82
2024/02/26 03:20:50;;;;;;;7.97;6.50;;;8.40;99.90;;;;;;5033223;28;20533;-82
2024/02/26 03:23:17;;;;;;;7.80;5.82;;;8.40;99.90;;;;;;5032077;28;20695;-82
2024/02/26 03:25:47;;;;;;;7.85;6.85;;;8.40;99.90;;;;;;5032796;28;20235;-82
2024/02/26 03:28:15;;;;;;;6.60;6.10;;;8.40;99.90;;;;;;5047008;28;20680;-82
2024/02/26 03:30:43;;;;;;;7.60;6.78;;;8.40;99.90;;;;;;5052315;28;20645;-82
2024/02/26 03:33:10;;;;;;;7.60;7.00;;;8.40;99.90;;;;;;5052256;28;20263;-81
2024/02/26 03:35:37;;;;;;;6.43;5.82;;;8.40;99.90;;;;;;5051769;28;20308;-82
2024/02/26 03:38:05;;;;;;;7.72;7.03;;;8.40;99.90;;;;;;5039158;28;20671;-82
2024/02/26 03:40:32;;;;;;;6.78;6.18;;;8.40;99.90;;;;;;5031884;28;20235;-81
2024/02/26 03:42:59;;;;;;;7.43;6.72;;;8.40;99.90;;;;;;5035395;28;20225;-81
2024/02/26 03:45:28;;;;;;;7.47;6.75;;;8.40;99.90;;;;;;5045106;28;20311;-81
2024/02/26 03:47:56;;;;;;;7.22;6.55;;;8.40;99.90;;;;;;5036428;28;20581;-82
2024/02/26 03:50:24;;;;;;;7.53;6.75;;;8.40;99.90;;;;;;5036649;28;20213;-82
2024/02/26 03:52:54;;;;;;;8.05;6.80;;;8.40;99.90;;;;;;5052443;28;20246;-81
2024/02/26 03:55:24;;;;;;;7.63;6.95;;;8.30;99.90;;;;;;5051694;28;20221;-82
2024/02/26 03:57:52;;;;;;;7.55;6.60;;;8.40;99.90;;;;;;5052500;28;20566;-81
2024/02/26 04:00:19;;;;;;;8.63;7.82;;;8.30;99.90;;;;;;5052211;28;20228;-82
2024/02/26 04:02:48;;;;;;;7.88;7.18;;;8.40;99.90;;;;;;5052068;28;20303;-81
2024/02/26 04:05:18;;;;;;;6.72;6.07;;;8.30;99.90;;;;;;5052150;28;20247;-82
2024/02/26 04:07:45;;;;;;;6.70;6.10;;;8.30;99.90;;;;;;5055439;28;20220;-82
2024/02/26 04:10:12;;;;;;;7.53;5.45;;;8.30;99.90;;;;;;5056284;28;20243;-81
2024/02/26 04:12:41;;;;;;;7.30;6.32;;;8.30;99.90;;;;;;5055799;28;20242;-82
2024/02/26 04:15:09;;;;;;;9.02;6.05;;;8.20;99.90;;;;;;5061431;28;20232;-81
2024/02/26 04:17:37;;;;;;;7.50;6.78;;;8.30;99.90;;;;;;5055476;28;20312;-81
2024/02/26 04:20:06;;;;;;;6.80;6.10;;;8.20;99.90;;;;;;5056064;28;20221;-81
2024/02/26 04:22:35;;;;;;;7.53;6.03;;;8.20;99.90;;;;;;5061067;28;20227;-81
2024/02/26 04:25:02;;;;;;;10.18;7.68;;;8.20;99.90;;;;;;5055967;28;20708;-81
2024/02/26 04:27:30;;;;;;;6.95;6.32;;;8.20;99.90;;;;;;5055339;28;20238;-81
2024/02/26 04:29:57;;;;;;;6.47;5.85;;;8.20;99.90;;;;;;5056278;28;20622;-81
2024/02/26 04:32:24;;;;;;;7.85;5.97;;;8.20;99.90;;;;;;5055522;28;20229;-81
2024/02/26 04:34:52;;;;;;;7.07;6.38;;;8.20;99.90;;;;;;5055333;28;20220;-81
2024/02/26 04:37:30;;;;;;;7.00;6.40;;;8.20;99.90;;;;;;5056214;28;20231;-81
2024/02/26 04:39:59;;;;;;;7.00;6.30;;;8.20;99.90;;;;;;5028201;28;20259;-81
2024/02/26 04:42:26;;;;;;;6.88;6.25;;;8.20;99.90;;;;;;5055142;28;20263;-81
2024/02/26 04:44:53;;;;;;;7.22;6.60;;;8.20;99.90;;;;;;5055921;28;20223;-81
2024/02/26 04:47:22;;;;;;;7.43;6.72;;;8.20;99.90;;;;;;5055995;28;20223;-81
2024/02/26 04:49:49;;;;;;;7.55;6.85;;;8.20;99.90;;;;;;5054783;28;20256;-81
2024/02/26 04:52:16;;;;;;;8.35;7.63;;;8.20;99.90;;;;;;5054027;28;20679;-81
2024/02/26 04:54:43;;;;;;;8.27;6.75;;;8.10;99.90;;;;;;5054808;28;20246;-81
2024/02/26 04:57:11;;;;;;;10.07;8.63;;;8.10;99.90;;;;;;5055388;28;20216;-81
2024/02/26 04:59:38;;;;;;;7.38;6.75;;;8.10;99.90;;;;;;5055089;28;20220;-81
2024/02/26 05:02:05;;;;;;;8.90;8.00;;;8.10;99.90;;;;;;5055555;28;20648;-81
2024/02/26 05:04:32;;;;;;;8.10;6.20;;;8.10;99.90;;;;;;5055031;28;20230;-82
2024/02/26 05:06:59;;;;;;;7.60;6.80;;;8.10;99.90;;;;;;5055165;28;20247;-81
2024/02/26 05:09:26;;;;;;;6.97;6.32;;;8.10;99.90;;;;;;5054891;28;20254;-81
2024/02/26 05:11:53;;;;;;;7.38;6.68;;;8.10;99.90;;;;;;5055077;28;20227;-82
2024/02/26 05:14:21;;;;;;;7.82;7.07;;;8.10;99.90;;;;;;5055191;28;20709;-82
2024/02/26 05:16:49;;;;;;;8.13;7.38;;;8.00;99.90;;;;;;5054275;28;20239;-81
2024/02/26 05:19:17;;;;;;;11.13;7.97;;;8.00;99.90;;;;;;5054492;28;20724;-81
2024/02/26 05:24:42;;;;;;;8.50;7.43;;;8.00;99.90;;;;;;5054590;28;20225;-80
2024/02/26 05:27:09;;;;;;;8.60;7.72;;;7.90;99.90;;;;;;5055169;28;20252;-80
2024/02/26 05:29:46;;;;;;;8.50;7.70;;;7.90;99.90;;;;;;5054980;28;20223;-81
2024/02/26 05:32:14;;;;;;;12.68;8.68;;;7.90;99.90;;;;;;5054737;28;20224;-81
2024/02/26 05:34:42;;;;;;;10.00;9.00;;;7.90;99.90;;;;;;5054891;28;20224;-80
2024/02/26 05:37:09;;;;;;;9.45;8.20;;;7.90;99.90;;;;;;5054374;28;20239;-81
2024/02/26 05:39:36;;;;;;;8.73;7.82;;;7.90;99.90;;;;;;5054373;28;20220;-81
2024/02/26 05:42:03;;;;;;;10.57;9.00;;;7.80;99.90;;;;;;5054316;28;20740;-80
2024/02/26 05:44:31;;;;;;;9.25;8.32;;;7.80;99.90;;;;;;5054675;28;20244;-80
2024/02/26 05:47:00;;;;;;;9.20;8.35;;;7.80;99.90;;;;;;5054345;28;20225;-81
2024/02/26 05:49:26;;;;;;;9.07;8.25;;;7.80;99.90;;;;;;5054537;28;20314;-80
2024/02/26 05:51:53;;;;;;;10.55;8.68;;;7.80;99.90;;;;;;5053463;28;20225;-81
2024/02/26 05:54:22;;;;;;;9.95;9.02;;;7.80;99.90;;;;;;5054529;28;20266;-80
2024/02/26 05:56:49;;;;;;;9.93;9.02;;;7.80;99.90;;;;;;5053990;28;20236;-81
2024/02/26 05:59:18;;;;;;;10.75;9.20;;;7.80;99.90;;;;;;5053656;28;20697;-81
2024/02/26 06:01:47;;;;;;;12.00;9.80;;;7.80;99.90;;;;;;5051507;28;20224;-80
2024/02/26 06:04:17;;;;;;;10.50;9.40;;;7.80;99.90;;;;;;5051514;28;20232;-81
2024/02/26 06:06:45;;;;;;;9.70;8.80;;;7.70;99.90;;;;;;5059228;28;20617;-80
2024/02/26 06:09:12;;;;;;;10.02;8.98;;;7.70;99.90;;;;;;5053812;28;20232;-80
2024/02/26 06:11:40;;;;;;;10.98;9.88;;;7.70;99.90;;;;;;5054278;28;20663;-80
2024/02/26 06:14:07;;;;;;;15.00;11.50;;;7.80;99.90;;;;;;5053115;28;20243;-80
2024/02/26 06:16:36;;;;;;;17.02;10.85;;;7.80;99.90;;;;;;5054043;28;20220;-80
2024/02/26 06:19:04;;;;;;;14.07;11.48;;;7.80;99.90;;;;;;5053950;28;20217;-79
2024/02/26 06:21:33;;;;;;;13.50;10.40;;;7.70;99.90;;;;;;5044286;28;20307;-80
2024/02/26 06:24:00;;;;;;;12.23;10.65;;;7.70;99.90;;;;;;5053197;28;20286;-80
2024/02/26 06:26:43;;;;;;;17.52;11.32;;;7.70;99.90;;;;;;5042597;28;20674;-80
2024/02/26 06:29:10;;;;;;;11.32;10.18;;;7.70;99.90;;;;;;5052989;28;20228;-80
2024/02/26 06:31:37;;;;;;;14.75;10.90;;;7.70;99.90;;;;;;5053749;28;20227;-80
2024/02/26 06:34:05;;;;;;;11.73;10.52;;;7.70;99.90;;;;;;5044605;28;20244;-80
2024/02/26 06:39:34;;;;;;;11.50;10.40;;;7.70;99.90;;;;;;5030198;28;20224;-81
2024/02/26 06:42:03;;;;;;;12.48;11.20;;;7.70;99.90;;;;;;5054268;28;20663;-81
2024/02/26 06:44:31;;;;;;;12.88;11.55;;;7.70;99.90;;;;;;5043045;28;20224;-80
2024/02/26 06:46:59;;;;;;;12.20;10.20;;;7.70;99.90;;;;;;5053393;28;20224;-80
2024/02/26 06:50:00;;;;;;;11.68;10.38;;;7.70;99.90;;;;;;5042625;28;20240;-80
2024/02/26 06:52:29;;;;;;;12.85;11.35;;;7.70;99.90;;;;;;4980358;28;20226;-80
2024/02/26 06:54:56;;;;;;;13.73;12.13;;;7.80;99.90;;;;;;5048943;28;20299;-80
2024/02/26 06:57:23;;;;;;;14.35;12.10;;;7.80;99.90;;;;;;5053663;28;20557;-80
2024/02/26 06:59:58;;;;;;;16.92;12.77;;;7.80;99.90;;;;;;5052758;28;20248;-80
2024/02/26 07:02:28;;;;;;;12.60;10.95;;;7.80;99.90;;;;;;5047856;28;20235;-80
2024/02/26 07:04:56;;;;;;;13.30;11.07;;;7.90;99.90;;;;;;5062534;28;20312;-80
2024/02/26 07:07:27;;;;;;;15.30;11.20;;;7.90;99.90;;;;;;5055300;28;20220;-80
2024/02/26 07:09:58;;;;;;;12.95;11.65;;;8.00;99.90;;;;;;5061371;28;20595;-80
2024/02/26 07:12:27;;;;;;;15.48;13.27;;;8.00;99.90;;;;;;5052892;28;20249;-81
2024/02/26 07:14:54;;;;;;;16.10;13.73;;;8.00;99.90;;;;;;5053338;28;20220;-80
2024/02/26 07:17:21;;;;;;;13.20;11.93;;;8.00;99.90;;;;;;5052217;28;20353;-80
2024/02/26 07:19:48;;;;;;;15.43;12.98;;;8.00;99.90;;;;;;5052486;28;20808;-80
2024/02/26 07:22:17;;;;;;;15.27;12.65;;;8.00;99.90;;;;;;5052892;28;20228;-80
2024/02/26 07:24:44;;;;;;;17.60;14.48;;;8.10;99.90;;;;;;5052143;28;20228;-80
2024/02/26 07:27:13;;;;;;;14.15;12.85;;;8.10;99.90;;;;;;5052639;28;20220;-80
2024/02/26 07:29:43;;;;;;;17.65;12.48;;;8.10;99.90;;;;;;5053124;28;20594;-80
2024/02/26 07:32:10;;;;;;;14.15;11.55;;;8.10;99.90;;;;;;5052326;28;20223;-80
2024/02/26 07:34:41;;;;;;;14.43;12.40;;;8.20;99.90;;;;;;5041110;28;20282;-80
2024/02/26 07:37:08;;;;;;;15.05;13.13;;;8.20;99.90;;;;;;5051827;28;20312;-80
2024/02/26 07:39:35;;;;;;;14.13;11.93;;;8.30;99.90;;;;;;5051826;28;20224;-80
2024/02/26 07:42:02;;;;;;;14.48;12.60;;;8.30;99.90;;;;;;5055611;28;20686;-81
2024/02/26 07:44:31;;;;;;;15.98;13.27;;;8.40;99.90;;;;;;5056151;28;20231;-81
2024/02/26 07:46:59;;;;;;;14.10;12.60;;;8.50;99.90;;;;;;5056254;28;20316;-81
2024/02/26 07:49:26;;;;;;;15.80;14.30;;;8.50;99.90;;;;;;5056642;28;20227;-81
2024/02/26 07:51:54;;;;;;;15.68;13.73;;;8.60;99.90;;;;;;5056313;28;22600;-80
2024/02/26 07:54:24;;;;;;;18.95;14.30;;;8.60;99.90;;;;;;5056557;28;20298;-80
2024/02/26 07:56:51;;;;;;;15.40;13.90;;;8.60;99.90;;;;;;5056016;28;20307;-80
2024/02/26 07:59:20;;;;;;;15.32;13.73;;;8.70;99.90;;;;;;5052114;28;20219;-80
2024/02/26 08:01:52;;;;;;;14.45;12.25;;;8.70;99.90;;;;;;5056616;28;20235;-80
2024/02/26 08:04:21;;;;;;;16.95;14.30;;;8.80;99.90;;;;;;5055838;28;20225;-80
2024/02/26 08:06:48;;;;;;;17.73;14.75;;;8.90;99.90;;;;;;5056049;28;20670;-80
2024/02/26 08:09:15;;;;;;;15.00;13.25;;;8.90;99.90;;;;;;5056024;28;20244;-80
2024/02/26 08:11:42;;;;;;;15.10;13.45;;;9.00;99.90;;;;;;5055950;28;20568;-81
2024/02/26 08:14:09;;;;;;;13.95;12.65;;;9.10;99.90;;;;;;5056765;28;20663;-81
2024/02/26 08:16:38;;;;;;;15.85;13.15;;;9.10;99.90;;;;;;5056769;28;20559;-80
2024/02/26 08:19:13;;;;;;;17.65;15.23;;;9.20;99.90;;;;;;5055955;28;20227;-80
2024/02/26 08:21:42;;;;;;;16.00;14.32;;;9.20;99.90;;;;;;5056695;28;20273;-80
2024/02/26 08:24:09;;;;;;;14.20;12.70;;;9.30;99.90;;;;;;5056071;28;20217;-80
2024/02/26 08:26:41;;;;;;;16.83;14.95;;;9.30;99.90;;;;;;5056362;28;20232;-80
2024/02/26 08:29:08;;;;;;;18.83;15.40;;;9.40;99.90;;;;;;5055182;28;20563;-81
2024/02/26 08:31:38;;;;;;;16.35;14.73;;;9.50;99.90;;;;;;5060024;28;20268;-81
2024/02/26 08:34:13;;;;;;;17.15;15.25;;;9.40;99.90;;;;;;5048918;28;20231;-81
2024/02/26 08:36:40;;;;;;;15.30;13.43;;;9.50;99.90;;;;;;5069739;28;20227;-80
2024/02/26 08:39:10;;;;;;;13.88;12.48;;;9.50;99.90;;;;;;5048259;28;20234;-80
2024/02/26 08:41:37;;;;;;;14.23;12.82;;;9.60;99.90;;;;;;5069750;28;20290;-81
2024/02/26 08:44:05;;;;;;;16.08;14.38;;;9.60;99.90;;;;;;5053738;28;20255;-81
2024/02/26 08:46:32;;;;;;;18.45;14.55;;;9.70;99.90;;;;;;5062809;28;20296;-81
2024/02/26 08:48:59;;;;;;;15.63;14.05;;;9.70;99.90;;;;;;5056833;28;20248;-81
2024/02/26 08:51:28;;;;;;;17.98;13.60;;;9.80;99.90;;;;;;5056216;28;20233;-81
2024/02/26 08:53:55;;;;;;;16.00;14.40;;;9.80;99.90;;;;;;5053948;28;20314;-81
2024/02/26 08:56:22;;;;;;;17.35;14.57;;;9.90;99.90;;;;;;5065110;28;20233;-81
2024/02/26 08:58:53;;;;;;;19.38;14.20;;;9.90;99.90;;;;;;5056358;28;20283;-80
2024/02/26 09:01:23;;;;;;;17.30;14.63;;;9.90;99.90;;;;;;5054755;28;20225;-80
2024/02/26 09:03:50;;;;;;;16.35;14.43;;;10.00;99.90;;;;;;5055088;28;20236;-80
2024/02/26 09:06:17;;;;;;;17.15;14.95;;;10.00;99.90;;;;;;5055285;28;20682;-80
2024/02/26 09:08:45;;;;;;;15.43;13.40;;;10.10;99.90;;;;;;5047891;28;20609;-80
2024/02/26 09:11:12;;;;;;;17.90;14.82;;;10.20;99.90;;;;;;5056584;28;20233;-80
2024/02/26 09:13:45;;;;;;;15.65;14.00;;;10.30;99.90;;;;;;5055851;28;20240;-80
2024/02/26 09:16:13;;;;;;;18.13;14.38;;;10.30;99.90;;;;;;5046341;28;20244;-80
2024/02/26 09:18:40;;;;;;;15.90;14.38;;;10.40;99.90;;;;;;5055438;28;20227;-81
2024/02/26 09:21:45;;;;;;;21.33;15.15;;;10.40;99.90;;;;;;5054661;28;20225;-80
2024/02/26 09:24:14;;;;;;;15.65;14.05;;;10.50;99.90;;;;;;5052442;28;20708;-80
2024/02/26 09:26:47;;;;;;;18.33;14.63;;;10.60;99.90;;;;;;5055170;28;20227;-80
2024/02/26 09:29:14;;;;;;;14.73;13.32;;;10.60;99.90;;;;;;5053397;28;20221;-80
2024/02/26 09:31:42;;;;;;;16.50;14.02;;;10.70;99.90;;;;;;5055399;28;20236;-81
2024/02/26 09:34:16;;;;;;;17.58;14.25;;;10.80;99.90;;;;;;5045179;28;20220;-81
2024/02/26 09:36:45;;;;;;;15.27;13.70;;;10.80;99.90;;;;;;5067809;28;20258;-80
2024/02/26 09:39:14;;;;;;;15.38;13.77;;;10.90;99.90;;;;;;5054596;28;20683;-79
2024/02/26 09:41:41;;;;;;;17.38;15.30;;;10.90;99.90;;;;;;5055048;28;20220;-79
2024/02/26 09:44:14;;;;;;;15.40;13.80;;;11.00;99.90;;;;;;5054198;28;20612;-79
2024/02/26 09:46:42;;;;;;;16.02;13.35;;;11.00;99.90;;;;;;5054963;28;20232;-79
2024/02/26 09:49:10;;;;;;;15.55;13.93;;;11.00;99.90;;;;;;5053327;28;20282;-79
2024/02/26 09:51:38;;;;;;;15.57;13.75;;;11.10;99.90;;;;;;5044967;28;20228;-80
2024/02/26 09:54:08;;;;;;;15.90;14.30;;;11.20;99.90;;;;;;5054510;28;20581;-80
2024/02/26 09:56:43;;;;;;;13.48;12.13;;;11.20;99.90;;;;;;5054389;28;20600;-79
2024/02/26 09:59:14;;;;;;;16.00;14.50;;;11.30;99.90;;;;;;5053729;28;20248;-81
2024/02/26 10:02:04;;;;;;;15.50;13.80;;;11.30;99.90;;;;;;5054339;28;20216;-81
2024/02/26 10:04:32;;;;;;;15.50;14.05;;;11.40;99.90;;;;;;5053504;28;20244;-80
2024/02/26 10:07:01;;;;;;;17.40;13.68;;;11.40;99.90;;;;;;5053721;28;20230;-80
2024/02/26 10:09:28;;;;;;;13.88;12.48;;;11.50;99.90;;;;;;5053943;28;20255;-81
2024/02/26 10:11:57;;;;;;;15.23;13.60;;;11.50;99.90;;;;;;5055156;28;20221;-79
2024/02/26 10:14:26;;;;;;;15.45;13.18;;;11.60;99.90;;;;;;5054079;28;20239;-81
2024/02/26 10:16:58;;;;;;;15.45;13.55;;;11.60;99.90;;;;;;5026312;28;20282;-80
2024/02/26 10:19:29;;;;;;;13.85;12.45;;;11.60;99.90;;;;;;5051333;28;20265;-79
2024/02/26 10:21:58;;;;;;;13.32;11.95;;;11.70;99.90;;;;;;5061958;28;20607;-80
2024/02/26 10:24:25;;;;;;;13.27;11.98;;;11.60;99.90;;;;;;5053539;28;20698;-79
2024/02/26 10:26:59;;;;;;;14.32;12.00;;;11.70;99.90;;;;;;5053110;28;20236;-80
2024/02/26 10:29:31;;;;;;;13.63;12.15;;;11.80;99.90;;;;;;5054179;28;20220;-81
2024/02/26 10:31:58;;;;;;;13.93;12.43;;;11.80;99.90;;;;;;5043856;28;20225;-80
2024/02/26 10:34:27;;;;;;;14.98;11.35;;;11.90;99.90;;;;;;5052884;28;20714;-79
2024/02/26 10:36:58;;;;;;;12.90;11.60;;;11.90;99.90;;;;;;5052608;28;20592;-79
2024/02/26 10:39:25;;;;;;;18.15;11.38;;;12.10;99.90;;;;;;5058978;28;20216;-81
2024/02/26 10:41:55;;;;;;;13.55;12.18;;;12.20;99.90;;;;;;5043437;28;20224;-81
2024/02/26 10:44:25;;;;;;;15.48;11.95;;;12.20;99.90;;;;;;5052824;28;20220;-81
2024/02/26 10:46:59;;;;;;;12.02;10.82;;;12.20;99.90;;;;;;5059432;28;20712;-81
2024/02/26 10:49:27;;;;;;;10.43;9.32;;;12.30;99.90;;;;;;5053352;28;20224;-81
2024/02/26 10:51:58;;;;;;;14.95;11.15;;;12.30;99.90;;;;;;5053261;28;20224;-80
2024/02/26 10:54:31;;;;;;;11.27;10.18;;;12.40;99.90;;;;;;5052568;28;20229;-79
2024/02/26 10:56:59;;;;;;;10.80;9.48;;;12.50;99.90;;;;;;5053351;28;20232;-80
2024/02/26 10:59:37;;;;;;;11.73;10.57;;;12.40;99.90;;;;;;5052669;28;20232;-80
2024/02/26 11:02:09;;;;;;;12.43;9.90;;;12.50;99.90;;;;;;5044308;28;20232;-80
2024/02/26 11:04:38;;;;;;;10.60;9.60;;;12.50;99.90;;;;;;5051733;28;20252;-80
2024/02/26 11:07:11;;;;;;;12.48;10.00;;;12.60;99.90;;;;;;5050556;28;20227;-80
2024/02/26 11:09:46;;;;;;;10.93;10.02;;;12.70;99.90;;;;;;5052048;28;20251;-81
2024/02/26 11:12:14;;;;;;;10.48;9.48;;;12.70;99.90;;;;;;5053045;28;20255;-81
2024/02/26 11:14:54;;;;;;;10.57;9.52;;;12.70;99.90;;;;;;5045536;28;20234;-81
2024/02/26 11:17:25;;;;;;;10.60;9.70;;;12.80;99.90;;;;;;5063418;28;20228;-81
2024/02/26 11:19:53;;;;;;;10.82;9.20;;;12.80;99.90;;;;;;5042643;28;20229;-81
2024/02/26 11:22:21;;;;;;;11.38;10.23;;;12.80;99.90;;;;;;5052878;28;20251;-80
2024/02/26 11:24:54;;;;;;;11.32;10.10;;;12.90;99.90;;;;;;5047625;28;20620;-81
2024/02/26 11:27:29;;;;;;;10.27;9.15;;;12.80;99.90;;;;;;5061676;28;20239;-81
2024/02/26 11:30:02;;;;;;;10.43;9.43;;;12.90;99.90;;;;;;5053130;28;20247;-80
2024/02/26 11:32:48;;;;;;;10.95;9.88;;;12.90;99.90;;;;;;5051540;28;20302;-79
2024/02/26 11:35:17;;;;;;;12.75;9.68;;;13.00;99.90;;;;;;5052896;28;20294;-80
2024/02/26 11:38:07;;;;;;;11.35;10.25;;;13.10;99.90;;;;;;5052881;28;20251;-79
2024/02/26 11:40:35;;;;;;;11.45;10.30;;;13.10;99.90;;;;;;5044575;28;20307;-80
2024/02/26 11:43:02;;;;;;;13.07;11.60;;;13.10;99.90;;;;;;5041646;28;20559;-79
2024/02/26 11:45:56;;;;;;;13.90;11.48;;;13.10;99.90;;;;;;5052566;28;20220;-81
2024/02/26 11:49:19;;;;;;;13.17;10.70;;;13.20;99.90;;;;;;5055563;28;20224;-81
2024/02/26 11:51:54;;;;;;;14.75;12.15;;;13.20;99.90;;;;;;5051724;28;20790;-81
2024/02/26 11:57:40;;;;;;;12.80;11.55;;;13.30;99.90;;;;;;5047884;28;20278;-81
2024/02/26 12:00:27;;;;;;;14.20;11.10;;;13.30;99.90;;;;;;5052506;28;20730;-81
2024/02/26 12:03:24;;;;;;;12.15;10.90;;;13.30;99.90;;;;;;5064579;28;20471;-82
2024/02/26 12:05:53;;;;;;;13.07;11.77;;;13.40;99.90;;;;;;5004009;28;20222;-81
2024/02/26 12:08:23;;;;;;;12.17;10.87;;;13.30;99.90;;;;;;5013375;28;20745;-81
2024/02/26 12:10:54;;;;;;;16.13;12.50;;;13.40;99.90;;;;;;5013118;28;20469;-81
2024/02/26 12:13:31;;;;;;;13.80;11.90;;;13.40;99.90;;;;;;5012351;28;20218;-80
2024/02/26 12:15:59;;;;;;;11.75;10.60;;;13.40;99.90;;;;;;5012426;28;20222;-80
2024/02/26 12:18:26;;;;;;;13.52;12.23;;;13.40;99.90;;;;;;5013991;28;20249;-79
2024/02/26 12:21:00;;;;;;;12.98;9.55;;;13.50;99.90;;;;;;5013859;28;20615;-79
2024/02/26 12:23:34;;;;;;;13.35;12.05;;;13.50;99.90;;;;;;5024012;28;20224;-79
2024/02/26 12:26:06;;;;;;;14.00;12.33;;;13.50;99.90;;;;;;5023837;28;20366;-81
2024/02/26 12:28:51;;;;;;;12.65;10.63;;;13.60;99.90;;;;;;5029419;28;20469;-81
2024/02/26 12:31:18;;;;;;;12.57;11.13;;;13.60;99.90;;;;;;5018086;28;20691;-80
2024/02/26 12:33:52;;;;;;;11.43;10.23;;;13.60;99.90;;;;;;5018808;28;20489;-80
2024/02/26 12:36:20;;;;;;;11.63;10.43;;;13.70;99.90;;;;;;5033940;28;20241;-80
2024/02/26 12:38:48;;;;;;;10.82;9.82;;;13.70;99.90;;;;;;5016429;28;20975;-79
2024/02/26 12:41:16;;;;;;;10.87;9.77;;;13.80;99.90;;;;;;5015283;28;20253;-80
2024/02/26 12:43:50;;;;;;;12.23;10.60;;;13.80;99.90;;;;;;5016158;28;20769;-79
2024/02/26 12:46:18;;;;;;;10.73;9.73;;;13.80;99.90;;;;;;5044102;28;20486;-79
2024/02/26 12:48:45;;;;;;;11.98;9.85;;;13.90;99.90;;;;;;5028444;28;20492;-79
2024/02/26 12:51:13;;;;;;;12.25;9.75;;;13.90;99.90;;;;;;5022156;28;20224;-81
2024/02/26 12:53:43;;;;;;;8.73;7.87;;;13.90;99.90;;;;;;5031142;28;20225;-81
2024/02/26 12:56:15;;;;;;;9.43;8.30;;;13.90;99.90;;;;;;5015942;28;20469;-81
2024/02/26 12:58:47;;;;;;;9.63;8.73;;;13.90;99.90;;;;;;5015643;28;20783;-80
2024/02/26 13:01:16;;;;;;;9.10;8.18;;;13.90;99.90;;;;;;5015799;28;20477;-79
2024/02/26 13:03:47;;;;;;;9.00;8.03;;;13.90;99.90;;;;;;5027495;28;20224;-80
2024/02/26 13:06:14;;;;;;;8.93;8.13;;;13.90;99.90;;;;;;5055107;28;20467;-79
2024/02/26 13:08:44;;;;;;;8.43;7.63;;;13.80;99.90;;;;;;5054680;28;20455;-80
2024/02/26 13:11:13;;;;;;;11.37;8.33;;;13.80;99.90;;;;;;5054868;28;20550;-81
2024/02/26 13:13:40;;;;;;;10.33;8.60;;;13.80;99.60;;;;;;5054404;28;20483;-80
2024/02/26 13:16:11;;;;;;;8.37;7.23;;;13.80;99.60;;;;;;5054934;28;20575;-80